createdAt,value
2017-07-12T00:00:58.245Z,0
2017-07-12T00:02:07.149Z,0
2017-07-12T00:03:16.007Z,0
2017-07-12T00:04:24.863Z,0
2017-07-12T00:05:33.718Z,0
2017-07-12T00:06:42.575Z,0
2017-07-12T00:07:51.583Z,0
2017-07-12T00:09:00.439Z,0
2017-07-12T00:10:09.294Z,0
2017-07-12T00:11:18.151Z,0
2017-07-12T00:12:27.007Z,0
2017-07-12T00:13:36.013Z,0
2017-07-12T00:14:44.871Z,0
2017-07-12T00:15:53.727Z,0
2017-07-12T00:17:02.583Z,0
2017-07-12T00:18:11.441Z,0
2017-07-12T00:19:20.598Z,0
2017-07-12T00:20:29.454Z,0
2017-07-12T00:21:38.308Z,0
2017-07-12T00:22:47.164Z,0
2017-07-12T00:23:56.019Z,0
2017-07-12T00:25:05.024Z,0
2017-07-12T00:26:13.880Z,0
2017-07-12T00:27:22.735Z,0
2017-07-12T00:28:31.591Z,0
2017-07-12T00:29:40.447Z,0
2017-07-12T00:30:49.400Z,0
2017-07-12T00:31:58.255Z,0
2017-07-12T00:33:07.111Z,0
2017-07-12T00:34:15.966Z,0
2017-07-12T00:35:24.824Z,0
2017-07-12T00:36:33.881Z,0
2017-07-12T00:37:42.737Z,0
2017-07-12T00:38:51.593Z,0
2017-07-12T00:40:00.450Z,0
2017-07-12T00:41:09.305Z,0
2017-07-12T00:42:18.308Z,0
2017-07-12T00:43:27.163Z,0
2017-07-12T00:44:36.021Z,0
2017-07-12T00:45:44.878Z,0
2017-07-12T00:46:53.733Z,0
2017-07-12T00:48:02.641Z,0
2017-07-12T00:49:11.495Z,0
2017-07-12T00:50:20.350Z,0
2017-07-12T00:51:29.205Z,0
2017-07-12T00:52:38.394Z,0
2017-07-12T00:53:47.449Z,0
2017-07-12T00:54:56.307Z,0
2017-07-12T00:56:05.494Z,0
2017-07-12T00:57:14.352Z,0
2017-07-12T00:58:23.206Z,0
2017-07-12T00:59:32.161Z,0
2017-07-12T01:00:41.068Z,0
2017-07-12T01:01:49.927Z,0
2017-07-12T01:02:58.779Z,0
2017-07-12T01:04:07.635Z,0
2017-07-12T01:05:16.793Z,0
2017-07-12T01:06:25.646Z,0
2017-07-12T01:07:34.505Z,0
2017-07-12T01:08:43.360Z,0
2017-07-12T01:09:52.214Z,0
2017-07-12T01:11:01.801Z,0
2017-07-12T01:12:10.657Z,0
2017-07-12T01:13:19.514Z,0
2017-07-12T01:14:28.371Z,0
2017-07-12T01:15:37.225Z,0
2017-07-12T01:16:46.081Z,0
2017-07-12T01:17:54.937Z,0
2017-07-12T01:19:03.790Z,0
2017-07-12T01:20:12.645Z,0
2017-07-12T01:21:21.500Z,0
2017-07-12T01:22:30.505Z,0
2017-07-12T01:23:39.511Z,0
2017-07-12T01:24:48.367Z,0
2017-07-12T01:25:57.223Z,0
2017-07-12T01:27:06.077Z,0
2017-07-12T01:28:15.234Z,0
2017-07-12T01:29:24.090Z,0
2017-07-12T01:30:32.946Z,0
2017-07-12T01:31:41.801Z,0
2017-07-12T01:32:50.655Z,0
2017-07-12T01:33:59.610Z,0
2017-07-12T01:35:08.465Z,0
2017-07-12T01:36:17.321Z,0
2017-07-12T01:37:26.179Z,0
2017-07-12T01:38:35.034Z,0
2017-07-12T01:39:43.885Z,0
2017-07-12T01:40:52.741Z,0
2017-07-12T01:42:01.597Z,0
2017-07-12T01:43:10.455Z,0
2017-07-12T01:44:19.644Z,0
2017-07-12T01:45:28.700Z,0
2017-07-12T01:46:37.553Z,0
2017-07-12T01:47:46.407Z,0
2017-07-12T01:48:55.268Z,0
2017-07-12T01:50:04.462Z,0
2017-07-12T01:51:13.720Z,0
2017-07-12T01:52:22.574Z,0
2017-07-12T01:53:31.430Z,0
2017-07-12T01:54:40.286Z,0
2017-07-12T01:55:49.140Z,0
2017-07-12T01:56:58.481Z,0
2017-07-12T01:58:07.336Z,0
2017-07-12T01:59:16.191Z,0
2017-07-12T02:00:25.045Z,0
2017-07-12T02:01:33.899Z,0
2017-07-12T02:02:42.912Z,0
2017-07-12T02:03:51.767Z,0
2017-07-12T02:05:00.620Z,0
2017-07-12T02:06:09.477Z,0
2017-07-12T02:07:18.333Z,0
2017-07-12T02:08:27.237Z,0
2017-07-12T02:09:36.091Z,0
2017-07-12T02:10:44.947Z,0
2017-07-12T02:11:53.803Z,0
2017-07-12T02:13:02.660Z,0
2017-07-12T02:14:11.666Z,0
2017-07-12T02:15:20.521Z,0
2017-07-12T02:16:29.378Z,0
2017-07-12T02:17:38.233Z,0
2017-07-12T02:18:47.088Z,0
2017-07-12T02:19:56.045Z,0
2017-07-12T02:21:04.897Z,0
2017-07-12T02:22:13.748Z,0
2017-07-12T02:23:22.602Z,0
2017-07-12T02:24:31.786Z,0
2017-07-12T02:25:41.076Z,0
2017-07-12T02:26:49.930Z,0
2017-07-12T02:27:58.783Z,0
2017-07-12T02:29:07.640Z,0
2017-07-12T02:30:16.495Z,0
2017-07-12T02:31:25.449Z,0
2017-07-12T02:32:34.302Z,0
2017-07-12T02:33:43.494Z,0
2017-07-12T02:34:52.348Z,0
2017-07-12T02:36:01.202Z,0
2017-07-12T02:37:10.207Z,0
2017-07-12T02:38:19.063Z,0
2017-07-12T02:39:27.919Z,0
2017-07-12T02:40:36.778Z,0
2017-07-12T02:41:45.632Z,0
2017-07-12T02:43:26.591Z,0
2017-07-12T02:44:35.448Z,0
2017-07-12T02:45:44.301Z,0
2017-07-12T02:46:53.158Z,0
2017-07-12T02:48:02.164Z,0
2017-07-12T02:49:11.018Z,0
2017-07-12T02:50:19.874Z,0
2017-07-12T02:51:28.729Z,0
2017-07-12T02:52:37.584Z,0
2017-07-12T02:53:46.841Z,0
2017-07-12T02:54:55.696Z,0
2017-07-12T02:56:04.550Z,0
2017-07-12T02:57:13.406Z,0
2017-07-12T02:58:22.260Z,0
2017-07-12T02:59:31.263Z,0
2017-07-12T03:00:40.117Z,0
2017-07-12T03:01:48.971Z,0
2017-07-12T03:02:57.827Z,0
2017-07-12T03:04:06.685Z,0
2017-07-12T03:05:15.539Z,0
2017-07-12T03:06:24.391Z,0
2017-07-12T03:07:33.246Z,0
2017-07-12T03:08:42.104Z,0
2017-07-12T03:09:50.957Z,0
2017-07-12T03:10:59.862Z,0
2017-07-12T03:12:08.720Z,0
2017-07-12T03:13:17.577Z,0
2017-07-12T03:14:26.432Z,0
2017-07-12T03:15:35.288Z,0
2017-07-12T03:16:44.295Z,0
2017-07-12T03:17:53.149Z,0
2017-07-12T03:19:02.006Z,0
2017-07-12T03:20:10.860Z,0
2017-07-12T03:21:19.716Z,0
2017-07-12T03:22:28.971Z,0
2017-07-12T03:23:37.826Z,0
2017-07-12T03:24:46.681Z,0
2017-07-12T03:25:55.537Z,0
2017-07-12T03:27:04.388Z,0
2017-07-12T03:28:13.244Z,0
2017-07-12T03:29:22.099Z,0
2017-07-12T03:30:30.957Z,0
2017-07-12T03:31:39.814Z,0
2017-07-12T03:32:49.010Z,0
2017-07-12T03:33:58.017Z,0
2017-07-12T03:35:06.872Z,0
2017-07-12T03:36:16.061Z,0
2017-07-12T03:37:24.966Z,0
2017-07-12T03:38:33.823Z,0
2017-07-12T03:39:42.831Z,0
2017-07-12T03:40:51.684Z,0
2017-07-12T03:42:00.540Z,0
2017-07-12T03:43:09.395Z,0
2017-07-12T03:44:18.251Z,0
2017-07-12T03:45:27.155Z,0
2017-07-12T03:46:36.010Z,0
2017-07-12T03:47:44.866Z,0
2017-07-12T03:48:54.068Z,0
2017-07-12T03:50:02.923Z,5
2017-07-12T03:51:12.128Z,5
2017-07-12T03:52:20.983Z,5
2017-07-12T03:53:29.838Z,5
2017-07-12T03:54:38.691Z,5
2017-07-12T03:55:47.545Z,5
2017-07-12T03:56:56.501Z,5
2017-07-12T03:58:05.358Z,5
2017-07-12T03:59:14.214Z,5
2017-07-12T04:00:23.077Z,5
2017-07-12T04:01:31.926Z,5
2017-07-12T04:02:40.931Z,5
2017-07-12T04:03:49.787Z,5
2017-07-12T04:04:58.644Z,5
2017-07-12T04:06:07.498Z,5
2017-07-12T04:07:16.353Z,5
2017-07-12T04:08:25.307Z,5
2017-07-12T04:09:34.162Z,5
2017-07-12T04:10:43.020Z,10
2017-07-12T04:11:51.873Z,10
2017-07-12T04:13:00.729Z,10
2017-07-12T04:14:09.584Z,10
2017-07-12T04:15:18.440Z,15
2017-07-12T04:16:27.294Z,15
2017-07-12T04:17:36.149Z,20
2017-07-12T04:18:45.002Z,20
2017-07-12T04:19:54.258Z,25
2017-07-12T04:21:03.113Z,30
2017-07-12T04:22:11.969Z,30
2017-07-12T04:23:20.825Z,35
2017-07-12T04:24:29.681Z,35
2017-07-12T04:25:38.687Z,35
2017-07-12T04:26:47.541Z,35
2017-07-12T04:27:56.729Z,35
2017-07-12T04:29:05.580Z,35
2017-07-12T04:30:14.437Z,35
2017-07-12T04:31:23.443Z,40
2017-07-12T04:32:32.296Z,40
2017-07-12T04:33:41.150Z,40
2017-07-12T04:34:50.005Z,35
2017-07-12T04:35:58.862Z,35
2017-07-12T04:37:07.765Z,30
2017-07-12T04:38:16.621Z,30
2017-07-12T04:39:25.474Z,30
2017-07-12T04:40:34.329Z,35
2017-07-12T04:41:43.186Z,35
2017-07-12T04:42:52.292Z,40
2017-07-12T04:44:01.150Z,45
2017-07-12T04:45:10.342Z,50
2017-07-12T04:46:19.197Z,50
2017-07-12T04:47:28.051Z,50
2017-07-12T04:48:36.960Z,55
2017-07-12T04:49:45.818Z,55
2017-07-12T04:50:54.673Z,60
2017-07-12T04:52:03.862Z,60
2017-07-12T04:53:12.718Z,60
2017-07-12T04:54:21.973Z,60
2017-07-12T04:55:30.825Z,55
2017-07-12T04:56:39.680Z,50
2017-07-12T04:57:48.535Z,45
2017-07-12T04:58:57.390Z,45
2017-07-12T05:00:06.880Z,45
2017-07-12T05:01:15.736Z,45
2017-07-12T05:02:24.592Z,40
2017-07-12T05:03:33.446Z,45
2017-07-12T05:04:42.303Z,50
2017-07-12T05:05:51.209Z,60
2017-07-12T05:07:00.065Z,70
2017-07-12T05:08:08.919Z,75
2017-07-12T05:09:17.775Z,80
2017-07-12T05:10:26.630Z,80
2017-07-12T05:11:35.786Z,75
2017-07-12T05:12:44.645Z,70
2017-07-12T05:13:53.500Z,70
2017-07-12T05:15:02.355Z,75
2017-07-12T05:16:11.218Z,85
2017-07-12T05:17:20.167Z,95
2017-07-12T05:18:29.021Z,110
2017-07-12T05:19:37.877Z,115
2017-07-12T05:20:46.732Z,110
2017-07-12T05:21:55.590Z,105
2017-07-12T05:23:04.593Z,100
2017-07-12T05:24:13.448Z,100
2017-07-12T05:25:22.304Z,105
2017-07-12T05:26:31.162Z,105
2017-07-12T05:27:40.014Z,105
2017-07-12T05:28:49.256Z,105
2017-07-12T05:29:58.110Z,100
2017-07-12T05:31:06.966Z,110
2017-07-12T05:32:16.157Z,125
2017-07-12T05:33:25.349Z,130
2017-07-12T05:34:34.354Z,135
2017-07-12T05:35:43.211Z,125
2017-07-12T05:36:52.402Z,135
2017-07-12T05:38:01.259Z,140
2017-07-12T05:39:10.113Z,135
2017-07-12T05:40:19.069Z,135
2017-07-12T05:41:27.924Z,125
2017-07-12T05:42:36.777Z,110
2017-07-12T05:43:45.630Z,100
2017-07-12T05:44:54.487Z,100
2017-07-12T05:46:03.395Z,100
2017-07-12T05:47:12.252Z,105
2017-07-12T05:48:21.108Z,115
2017-07-12T05:49:29.965Z,125
2017-07-12T05:50:38.820Z,130
2017-07-12T05:51:47.726Z,135
2017-07-12T05:52:56.583Z,145
2017-07-12T05:54:05.440Z,155
2017-07-12T05:55:14.297Z,175
2017-07-12T05:56:23.155Z,190
2017-07-12T05:57:32.161Z,205
2017-07-12T05:58:41.017Z,190
2017-07-12T05:59:49.874Z,190
2017-07-12T06:00:58.732Z,165
2017-07-12T06:02:07.588Z,140
2017-07-12T06:03:16.595Z,155
2017-07-12T06:04:25.495Z,165
2017-07-12T06:05:34.311Z,165
2017-07-12T06:06:43.169Z,160
2017-07-12T06:07:52.025Z,145
2017-07-12T06:09:00.931Z,150
2017-07-12T06:10:09.786Z,140
2017-07-12T06:11:18.642Z,130
2017-07-12T06:12:27.497Z,125
2017-07-12T06:13:36.353Z,110
2017-07-12T06:14:45.360Z,105
2017-07-12T06:15:54.215Z,115
2017-07-12T06:17:03.071Z,125
2017-07-12T06:18:11.927Z,120
2017-07-12T06:19:21.118Z,150
2017-07-12T06:20:30.073Z,155
2017-07-12T06:21:38.929Z,155
2017-07-12T06:22:47.785Z,160
2017-07-12T06:23:56.639Z,155
2017-07-12T06:25:05.495Z,145
2017-07-12T06:26:14.557Z,145
2017-07-12T06:27:23.746Z,150
2017-07-12T06:28:32.603Z,160
2017-07-12T06:29:41.459Z,170
2017-07-12T06:30:50.314Z,180
2017-07-12T06:31:59.322Z,175
2017-07-12T06:33:08.178Z,175
2017-07-12T06:34:17.035Z,175
2017-07-12T06:35:25.893Z,180
2017-07-12T06:36:34.751Z,185
2017-07-12T06:37:43.761Z,195
2017-07-12T06:38:52.615Z,200
2017-07-12T06:40:01.480Z,200
2017-07-12T06:41:10.678Z,195
2017-07-12T06:42:19.535Z,195
2017-07-12T06:43:28.542Z,190
2017-07-12T06:44:37.400Z,180
2017-07-12T06:45:46.257Z,175
2017-07-12T06:46:55.112Z,175
2017-07-12T06:48:03.967Z,175
2017-07-12T06:49:13.403Z,175
2017-07-12T06:50:22.271Z,175
2017-07-12T06:51:31.146Z,170
2017-07-12T06:52:40.025Z,170
2017-07-12T06:53:48.892Z,180
2017-07-12T06:54:57.963Z,185
2017-07-12T06:56:06.885Z,195
2017-07-12T06:57:15.791Z,200
2017-07-12T06:58:24.665Z,205
2017-07-12T06:59:33.522Z,210
2017-07-12T07:00:42.489Z,215
2017-07-12T07:01:51.366Z,220
2017-07-12T07:03:00.236Z,225
2017-07-12T07:04:09.092Z,230
2017-07-12T07:05:17.955Z,235
2017-07-12T07:06:27.255Z,240
2017-07-12T07:07:36.531Z,225
2017-07-12T07:08:45.587Z,210
2017-07-12T07:09:54.477Z,195
2017-07-12T07:11:03.347Z,190
2017-07-12T07:12:12.366Z,180
2017-07-12T07:13:21.257Z,170
2017-07-12T07:14:30.123Z,160
2017-07-12T07:15:39.012Z,160
2017-07-12T07:16:47.990Z,170
2017-07-12T07:17:57.044Z,180
2017-07-12T07:19:05.916Z,180
2017-07-12T07:20:14.801Z,170
2017-07-12T07:21:23.678Z,160
2017-07-12T07:22:32.564Z,145
2017-07-12T07:23:41.679Z,140
2017-07-12T07:24:50.557Z,140
2017-07-12T07:25:59.427Z,140
2017-07-12T07:27:08.387Z,130
2017-07-12T07:28:17.257Z,120
2017-07-12T07:29:26.364Z,120
2017-07-12T07:30:35.291Z,125
2017-07-12T07:31:44.547Z,135
2017-07-12T07:32:53.541Z,150
2017-07-12T07:34:02.406Z,150
2017-07-12T07:35:11.376Z,155
2017-07-12T07:36:20.256Z,175
2017-07-12T07:37:29.124Z,195
2017-07-12T07:38:38.057Z,200
2017-07-12T07:39:46.978Z,215
2017-07-12T07:40:55.989Z,250
2017-07-12T07:42:04.869Z,255
2017-07-12T07:43:14.162Z,250
2017-07-12T07:44:23.437Z,240
2017-07-12T07:45:32.442Z,235
2017-07-12T07:46:41.509Z,225
2017-07-12T07:47:50.405Z,205
2017-07-12T07:48:59.329Z,175
2017-07-12T07:50:08.231Z,160
2017-07-12T07:51:17.216Z,165
2017-07-12T07:52:26.154Z,185
2017-07-12T07:53:35.096Z,200
2017-07-12T07:54:43.988Z,200
2017-07-12T07:55:52.891Z,245
2017-07-12T07:57:01.785Z,265
2017-07-12T07:58:10.738Z,280
2017-07-12T07:59:19.612Z,280
2017-07-12T08:00:28.496Z,290
2017-07-12T08:01:37.460Z,340
2017-07-12T08:02:46.377Z,370
2017-07-12T08:03:55.413Z,365
2017-07-12T08:05:04.358Z,395
2017-07-12T08:06:13.335Z,395
2017-07-12T08:07:22.267Z,360
2017-07-12T08:08:31.377Z,365
2017-07-12T08:09:40.379Z,420
2017-07-12T08:10:49.295Z,515
2017-07-12T08:11:58.433Z,495
2017-07-12T08:13:07.385Z,530
2017-07-12T08:14:16.274Z,545
2017-07-12T08:15:25.451Z,520
2017-07-12T08:16:34.362Z,450
2017-07-12T08:17:43.289Z,430
2017-07-12T08:18:52.233Z,485
2017-07-12T08:20:01.213Z,435
2017-07-12T08:21:10.226Z,365
2017-07-12T08:22:19.171Z,320
2017-07-12T08:23:28.097Z,280
2017-07-12T08:24:36.963Z,365
2017-07-12T08:25:45.839Z,395
2017-07-12T08:26:54.945Z,425
2017-07-12T08:28:04.267Z,335
2017-07-12T08:29:13.237Z,225
2017-07-12T08:30:22.161Z,155
2017-07-12T08:31:31.123Z,105
2017-07-12T08:32:40.369Z,155
2017-07-12T08:33:49.270Z,215
2017-07-12T08:34:58.156Z,265
2017-07-12T08:36:07.079Z,260
2017-07-12T08:37:16.371Z,210
2017-07-12T08:38:25.968Z,155
2017-07-12T08:39:35.201Z,145
2017-07-12T08:40:44.106Z,175
2017-07-12T08:41:53.028Z,180
2017-07-12T08:43:01.894Z,160
2017-07-12T08:44:10.937Z,140
2017-07-12T08:45:19.862Z,120
2017-07-12T08:46:28.764Z,120
2017-07-12T08:47:37.661Z,105
2017-07-12T08:48:46.552Z,110
2017-07-12T08:49:55.459Z,120
2017-07-12T08:51:04.318Z,160
2017-07-12T08:52:13.174Z,170
2017-07-12T08:53:22.031Z,190
2017-07-12T08:54:30.889Z,215
2017-07-12T08:55:39.995Z,260
2017-07-12T08:56:48.852Z,280
2017-07-12T08:57:57.713Z,285
2017-07-12T08:59:06.571Z,285
2017-07-12T09:00:15.429Z,280
2017-07-12T09:01:24.688Z,285
2017-07-12T09:02:33.549Z,285
2017-07-12T09:03:42.775Z,300
2017-07-12T09:04:51.678Z,310
2017-07-12T09:06:00.540Z,320
2017-07-12T09:07:09.453Z,335
2017-07-12T09:08:18.317Z,330
2017-07-12T09:09:27.202Z,310
2017-07-12T09:10:36.065Z,290
2017-07-12T09:11:44.943Z,290
2017-07-12T09:12:53.954Z,290
2017-07-12T09:14:02.874Z,325
2017-07-12T09:15:11.776Z,330
2017-07-12T09:16:20.656Z,335
2017-07-12T09:17:29.513Z,330
2017-07-12T09:18:38.766Z,325
2017-07-12T09:19:47.631Z,305
2017-07-12T09:20:56.515Z,290
2017-07-12T09:22:05.372Z,295
2017-07-12T09:23:14.229Z,310
2017-07-12T09:33:35.210Z,250
2017-07-12T09:34:44.069Z,230
2017-07-12T09:35:53.152Z,210
2017-07-12T09:37:02.027Z,200
2017-07-12T09:38:10.892Z,215
2017-07-12T09:39:19.800Z,260
2017-07-12T09:40:28.661Z,280
2017-07-12T09:41:37.567Z,280
2017-07-12T09:42:46.425Z,275
2017-07-12T09:43:55.281Z,295
2017-07-12T09:45:04.138Z,290
2017-07-12T09:46:12.997Z,300
2017-07-12T09:47:21.924Z,305
2017-07-12T09:48:30.770Z,290
2017-07-12T09:49:39.634Z,285
2017-07-12T09:50:48.496Z,285
2017-07-12T09:51:57.365Z,270
2017-07-12T09:53:06.322Z,275
2017-07-12T09:54:15.187Z,260
2017-07-12T09:55:24.046Z,255
2017-07-12T09:56:32.908Z,255
2017-07-12T09:57:41.768Z,250
2017-07-12T09:58:50.825Z,240
2017-07-12T09:59:59.683Z,240
2017-07-12T10:01:08.550Z,245
2017-07-12T10:02:17.743Z,250
2017-07-12T10:03:26.610Z,255
2017-07-12T10:04:35.536Z,250
2017-07-12T10:05:44.395Z,250
2017-07-12T10:06:53.254Z,240
2017-07-12T10:08:02.120Z,255
2017-07-12T10:09:10.988Z,280
2017-07-12T10:10:20.098Z,280
2017-07-12T10:11:28.959Z,295
2017-07-12T10:12:37.819Z,310
2017-07-12T10:13:46.678Z,320
2017-07-12T10:14:55.543Z,330
2017-07-12T10:16:04.501Z,340
2017-07-12T10:17:13.359Z,350
2017-07-12T10:18:22.235Z,355
2017-07-12T10:19:31.094Z,355
2017-07-12T10:20:39.950Z,380
2017-07-12T10:21:48.958Z,385
2017-07-12T10:22:57.814Z,380
2017-07-12T10:24:06.672Z,370
2017-07-12T10:25:15.669Z,375
2017-07-12T10:26:24.753Z,380
2017-07-12T10:27:33.741Z,390
2017-07-12T10:28:42.624Z,395
2017-07-12T10:29:51.489Z,390
2017-07-12T10:31:00.359Z,390
2017-07-12T10:32:09.222Z,390
2017-07-12T10:33:18.331Z,385
2017-07-12T10:34:27.192Z,375
2017-07-12T10:35:36.052Z,365
2017-07-12T10:36:45.250Z,350
2017-07-12T10:37:54.109Z,340
2017-07-12T10:39:03.130Z,365
2017-07-12T10:40:11.994Z,365
2017-07-12T10:41:20.855Z,360
2017-07-12T10:42:29.711Z,370
2017-07-12T10:43:38.637Z,355
2017-07-12T10:44:47.559Z,340
2017-07-12T10:45:56.415Z,305
2017-07-12T10:47:05.293Z,320
2017-07-12T10:48:14.153Z,365
2017-07-12T10:49:23.013Z,440
2017-07-12T10:50:31.968Z,485
2017-07-12T10:51:40.826Z,480
2017-07-12T10:52:49.687Z,455
2017-07-12T10:53:58.552Z,405
2017-07-12T10:55:07.421Z,420
2017-07-12T10:56:16.341Z,465
2017-07-12T10:57:25.548Z,460
2017-07-12T10:58:34.414Z,450
2017-07-12T10:59:43.276Z,440
2017-07-12T11:00:52.141Z,410
2017-07-12T11:02:01.162Z,420
2017-07-12T11:03:10.022Z,400
2017-07-12T11:04:18.880Z,425
2017-07-12T11:05:27.736Z,455
2017-07-12T11:06:36.593Z,475
2017-07-12T11:07:45.654Z,480
2017-07-12T11:08:54.846Z,465
2017-07-12T11:10:03.702Z,440
2017-07-12T11:11:12.562Z,455
2017-07-12T11:12:21.416Z,500
2017-07-12T11:13:30.575Z,565
2017-07-12T11:14:39.485Z,565
2017-07-12T11:15:48.362Z,560
2017-07-12T11:16:57.216Z,550
2017-07-12T11:18:06.409Z,535
2017-07-12T11:19:15.368Z,510
2017-07-12T11:20:24.224Z,490
2017-07-12T11:21:33.081Z,500
2017-07-12T11:22:41.936Z,495
2017-07-12T11:23:50.793Z,465
2017-07-12T11:24:59.859Z,455
2017-07-12T11:26:08.717Z,450
2017-07-12T11:27:17.573Z,485
2017-07-12T11:28:26.431Z,455
2017-07-12T11:29:35.291Z,420
2017-07-12T11:30:44.206Z,395
2017-07-12T11:31:53.079Z,360
2017-07-12T11:33:01.937Z,285
2017-07-12T11:34:10.803Z,255
2017-07-12T11:35:19.659Z,205
2017-07-12T11:36:28.532Z,130
2017-07-12T11:37:37.388Z,135
2017-07-12T11:38:46.246Z,185
2017-07-12T11:39:55.103Z,215
2017-07-12T11:41:03.967Z,235
2017-07-12T11:42:12.923Z,290
2017-07-12T11:43:21.784Z,335
2017-07-12T11:44:30.977Z,375
2017-07-12T11:45:39.839Z,375
2017-07-12T11:46:48.714Z,375
2017-07-12T11:47:58.166Z,375
2017-07-12T11:49:07.037Z,340
2017-07-12T11:50:15.894Z,305
2017-07-12T11:51:24.753Z,320
2017-07-12T11:52:33.616Z,260
2017-07-12T11:53:42.474Z,200
2017-07-12T11:54:51.366Z,160
2017-07-12T11:56:00.559Z,110
2017-07-12T11:57:09.747Z,80
2017-07-12T11:58:18.610Z,60
2017-07-12T11:59:27.731Z,50
2017-07-12T12:00:36.597Z,60
2017-07-12T12:01:45.454Z,75
2017-07-12T12:02:54.311Z,90
2017-07-12T12:04:03.169Z,140
2017-07-12T12:05:12.127Z,175
2017-07-12T12:06:20.989Z,240
2017-07-12T12:07:29.865Z,255
2017-07-12T12:08:38.724Z,285
2017-07-12T12:09:47.582Z,305
2017-07-12T12:10:56.489Z,400
2017-07-12T12:12:05.360Z,455
2017-07-12T12:13:14.217Z,470
2017-07-12T12:14:23.075Z,490
2017-07-12T12:15:32.268Z,505
2017-07-12T12:16:41.175Z,515
2017-07-12T12:17:50.033Z,520
2017-07-12T12:18:58.889Z,500
2017-07-12T12:20:07.743Z,525
2017-07-12T12:21:16.616Z,540
2017-07-12T12:22:25.731Z,535
2017-07-12T12:23:34.681Z,530
2017-07-12T12:24:43.552Z,540
2017-07-12T12:25:52.408Z,530
2017-07-12T12:27:01.270Z,515
2017-07-12T12:28:10.302Z,525
2017-07-12T12:29:19.192Z,515
2017-07-12T12:30:28.059Z,515
2017-07-12T12:31:36.951Z,490
2017-07-12T12:32:45.858Z,545
2017-07-12T12:33:54.968Z,600
2017-07-12T12:35:03.825Z,585
2017-07-12T12:36:12.723Z,555
2017-07-12T12:37:21.584Z,460
2017-07-12T12:38:30.442Z,525
2017-07-12T12:39:39.604Z,545
2017-07-12T12:40:48.469Z,460
2017-07-12T12:41:57.327Z,370
2017-07-12T12:43:06.183Z,235
2017-07-12T12:44:15.042Z,175
2017-07-12T12:45:23.957Z,130
2017-07-12T12:46:32.846Z,110
2017-07-12T12:47:41.701Z,120
2017-07-12T12:48:50.560Z,135
2017-07-12T12:49:59.420Z,165
2017-07-12T12:51:08.494Z,245
2017-07-12T12:52:17.349Z,345
2017-07-12T12:53:26.206Z,445
2017-07-12T12:54:35.062Z,545
2017-07-12T12:55:43.921Z,620
2017-07-12T12:56:53.080Z,650
2017-07-12T12:58:01.938Z,620
2017-07-12T12:59:10.797Z,640
2017-07-12T13:00:19.657Z,580
2017-07-12T13:01:28.515Z,580
2017-07-12T13:02:37.467Z,660
2017-07-12T13:03:46.323Z,680
2017-07-12T13:04:55.182Z,665
2017-07-12T13:06:04.037Z,685
2017-07-12T13:07:12.896Z,730
2017-07-12T13:08:21.804Z,760
2017-07-12T13:09:30.662Z,795
2017-07-12T13:10:39.522Z,820
2017-07-12T13:11:48.376Z,830
2017-07-12T13:12:57.235Z,850
2017-07-12T13:14:06.192Z,830
2017-07-12T13:15:15.049Z,880
2017-07-12T13:16:23.907Z,905
2017-07-12T13:17:32.763Z,960
2017-07-12T13:18:41.621Z,895
2017-07-12T13:19:50.480Z,795
2017-07-12T13:20:59.338Z,900
2017-07-12T13:22:08.199Z,810
2017-07-12T13:23:17.056Z,670
2017-07-12T13:24:25.917Z,520
2017-07-12T13:25:34.872Z,435
2017-07-12T13:26:43.732Z,310
2017-07-12T13:27:52.588Z,230
2017-07-12T13:29:01.510Z,180
2017-07-12T13:30:10.311Z,195
2017-07-12T13:31:19.214Z,365
2017-07-12T13:32:28.070Z,530
2017-07-12T13:33:36.928Z,620
2017-07-12T13:34:45.787Z,555
2017-07-12T13:35:54.644Z,600
2017-07-12T13:37:03.659Z,680
2017-07-12T13:38:12.511Z,675
2017-07-12T13:39:21.370Z,710
2017-07-12T13:40:30.237Z,710
2017-07-12T13:41:39.437Z,640
2017-07-12T13:42:48.545Z,560
2017-07-12T13:43:57.403Z,610
2017-07-12T13:45:06.269Z,730
2017-07-12T13:46:15.131Z,720
2017-07-12T13:47:24.322Z,710
2017-07-12T13:48:33.481Z,690
2017-07-12T13:49:42.415Z,610
2017-07-12T13:50:51.274Z,625
2017-07-12T13:52:00.201Z,625
2017-07-12T13:53:09.096Z,630
2017-07-12T13:54:18.105Z,600
2017-07-12T13:55:26.968Z,550
2017-07-12T13:56:35.828Z,555
2017-07-12T13:57:44.687Z,600
2017-07-12T13:58:53.565Z,560
2017-07-12T14:00:02.574Z,590
2017-07-12T14:01:11.437Z,555
2017-07-12T14:02:20.294Z,525
2017-07-12T14:03:29.164Z,480
2017-07-12T14:04:38.027Z,465
2017-07-12T14:05:46.941Z,365
2017-07-12T14:06:55.798Z,265
2017-07-12T14:08:04.702Z,195
2017-07-12T14:09:13.569Z,150
2017-07-12T14:10:22.483Z,105
2017-07-12T14:11:31.451Z,105
2017-07-12T14:12:40.321Z,165
2017-07-12T14:13:49.196Z,165
2017-07-12T14:14:58.054Z,150
2017-07-12T14:16:06.922Z,140
2017-07-12T14:17:15.853Z,135
2017-07-12T14:18:24.765Z,155
2017-07-12T14:19:33.990Z,195
2017-07-12T14:20:42.852Z,270
2017-07-12T14:21:51.735Z,345
2017-07-12T14:23:00.658Z,395
2017-07-12T14:24:09.529Z,430
2017-07-12T14:25:18.398Z,465
2017-07-12T14:26:27.263Z,420
2017-07-12T14:27:36.129Z,325
2017-07-12T14:28:45.009Z,255
2017-07-12T14:29:53.886Z,265
2017-07-12T14:31:02.769Z,375
2017-07-12T14:32:11.631Z,420
2017-07-12T14:33:20.768Z,360
2017-07-12T14:34:29.719Z,410
2017-07-12T14:35:38.703Z,230
2017-07-12T14:36:47.589Z,175
2017-07-12T14:37:56.477Z,200
2017-07-12T14:39:05.772Z,215
2017-07-12T14:40:14.799Z,240
2017-07-12T14:41:23.677Z,310
2017-07-12T14:42:32.604Z,160
2017-07-12T14:43:41.488Z,125
2017-07-12T14:44:50.348Z,120
2017-07-12T14:45:59.260Z,110
2017-07-12T14:47:08.131Z,100
2017-07-12T14:48:16.993Z,125
2017-07-12T14:49:25.854Z,140
2017-07-12T14:50:34.713Z,155
2017-07-12T14:51:43.768Z,220
2017-07-12T14:52:52.630Z,215
2017-07-12T14:54:01.486Z,160
2017-07-12T14:55:10.690Z,150
2017-07-12T14:56:19.551Z,115
2017-07-12T14:57:28.509Z,125
2017-07-12T14:58:37.365Z,115
2017-07-12T14:59:46.230Z,135
2017-07-12T15:00:55.086Z,180
2017-07-12T15:02:03.943Z,190
2017-07-12T15:03:13.185Z,190
2017-07-12T15:04:22.405Z,155
2017-07-12T15:05:31.267Z,115
2017-07-12T15:06:40.141Z,110
2017-07-12T15:07:49.014Z,110
2017-07-12T15:08:58.025Z,105
2017-07-12T15:10:06.883Z,105
2017-07-12T15:11:15.740Z,135
2017-07-12T15:12:24.598Z,160
2017-07-12T15:13:33.454Z,160
2017-07-12T15:14:42.612Z,170
2017-07-12T15:15:51.471Z,160
2017-07-12T15:17:00.326Z,165
2017-07-12T15:18:09.181Z,145
2017-07-12T15:19:18.039Z,100
2017-07-12T15:20:26.895Z,130
2017-07-12T15:21:35.754Z,130
2017-07-12T15:22:44.612Z,140
2017-07-12T15:23:53.468Z,170
2017-07-12T15:25:02.328Z,180
2017-07-12T15:26:11.188Z,145
2017-07-12T15:27:20.047Z,115
2017-07-12T15:28:28.903Z,115
2017-07-12T15:29:37.777Z,115
2017-07-12T15:30:46.613Z,115
2017-07-12T15:31:55.502Z,110
2017-07-12T15:33:04.353Z,120
2017-07-12T15:34:13.208Z,145
2017-07-12T15:35:22.065Z,185
2017-07-12T15:36:30.922Z,285
2017-07-12T15:37:39.781Z,265
2017-07-12T15:38:48.636Z,290
2017-07-12T15:39:57.490Z,290
2017-07-12T15:41:06.683Z,290
2017-07-12T15:42:15.542Z,310
2017-07-12T15:43:24.700Z,275
2017-07-12T15:44:33.555Z,305
2017-07-12T15:45:42.414Z,290
2017-07-12T15:46:51.270Z,250
2017-07-12T15:48:00.125Z,215
2017-07-12T15:49:09.281Z,185
2017-07-12T15:50:18.138Z,150
2017-07-12T15:51:26.994Z,150
2017-07-12T15:52:35.849Z,165
2017-07-12T15:53:44.705Z,175
2017-07-12T15:54:53.717Z,200
2017-07-12T15:56:02.906Z,205
2017-07-12T15:57:11.768Z,230
2017-07-12T15:58:20.624Z,235
2017-07-12T15:59:29.479Z,230
2017-07-12T16:00:38.388Z,240
2017-07-12T16:01:47.252Z,260
2017-07-12T16:02:56.108Z,275
2017-07-12T16:04:04.966Z,275
2017-07-12T16:05:13.826Z,305
2017-07-12T16:06:22.739Z,325
2017-07-12T16:07:31.617Z,320
2017-07-12T16:08:40.474Z,305
2017-07-12T16:09:49.363Z,320
2017-07-12T16:10:58.241Z,365
2017-07-12T16:12:07.198Z,365
2017-07-12T16:13:16.053Z,360
2017-07-12T16:14:24.911Z,330
2017-07-12T16:15:33.767Z,320
2017-07-12T16:16:42.627Z,285
2017-07-12T16:17:51.639Z,275
2017-07-12T16:19:00.496Z,280